createdAt,value
2022-08-17T00:00:43.043Z,99890.91
2022-08-17T00:03:18.604Z,99888.31
2022-08-17T00:05:53.077Z,99894.69
2022-08-17T00:08:25.125Z,99897.25
2022-08-17T00:10:55.239Z,99888.78
2022-08-17T00:13:28.609Z,99895.28
2022-08-17T00:16:02.611Z,99898.13
2022-08-17T00:19:02.418Z,99903.94
2022-08-17T00:21:25.312Z,99903.13
2022-08-17T00:23:55.799Z,99892.91
2022-08-17T00:26:43.551Z,99888.09
2022-08-17T00:29:19.526Z,99891.91
2022-08-17T00:31:50.677Z,99892.94
2022-08-17T00:34:19.747Z,99899.63
2022-08-17T00:36:48.277Z,99893.31
2022-08-17T00:39:16.830Z,99901.66
2022-08-17T00:41:45.598Z,99899.50
2022-08-17T00:44:14.711Z,99903.38
2022-08-17T00:46:47.843Z,99908.38
2022-08-17T00:49:19.649Z,99913.28
2022-08-17T00:51:56.110Z,99905.09
2022-08-17T00:54:29.863Z,99911.88
2022-08-17T00:57:05.637Z,99911.06
2022-08-17T00:59:40.668Z,99903.41
2022-08-17T01:02:14.325Z,99906.41
2022-08-17T01:04:47.589Z,99904.47
2022-08-17T01:07:17.436Z,99912.28
2022-08-17T01:09:46.348Z,99901.91
2022-08-17T01:12:15.367Z,99899.78
2022-08-17T01:14:44.138Z,99906.00
2022-08-17T01:17:13.302Z,99910.38
2022-08-17T01:19:45.356Z,99908.88
2022-08-17T01:22:23.966Z,99901.56
2022-08-17T01:25:00.325Z,99899.22
2022-08-17T01:27:30.367Z,99906.22
2022-08-17T01:30:04.829Z,99902.72
2022-08-17T01:32:53.753Z,99907.91
2022-08-17T01:35:22.489Z,99909.13
2022-08-17T01:37:52.422Z,99911.13
2022-08-17T01:40:30.097Z,99914.94
2022-08-17T01:43:04.499Z,99899.13
2022-08-17T01:45:38.682Z,99914.31
2022-08-17T01:48:07.690Z,99908.97
2022-08-17T01:50:38.342Z,99916.34
2022-08-17T01:53:14.915Z,99909.66
2022-08-17T01:55:50.706Z,99916.38
2022-08-17T01:58:19.851Z,99908.56
2022-08-17T02:01:00.567Z,99910.25
2022-08-17T02:03:31.532Z,99899.41
2022-08-17T02:06:00.267Z,99912.69
2022-08-17T02:08:37.002Z,99917.69
2022-08-17T02:11:14.686Z,99917.69
2022-08-17T02:13:43.814Z,99918.06
2022-08-17T02:16:13.732Z,99920.72
2022-08-17T02:18:42.845Z,99923.91
2022-08-17T02:21:11.890Z,99919.25
2022-08-17T02:23:48.378Z,99927.63
2022-08-17T02:26:25.731Z,99923.78
2022-08-17T02:28:55.815Z,99924.13
2022-08-17T02:31:24.368Z,99919.94
2022-08-17T02:34:00.294Z,99918.97
2022-08-17T02:36:35.532Z,99918.97
2022-08-17T02:39:08.940Z,99920.59
2022-08-17T02:41:38.896Z,99926.09
2022-08-17T02:44:08.731Z,99925.13
2022-08-17T02:46:37.277Z,99929.97
2022-08-17T02:49:06.530Z,99927.97
2022-08-17T02:51:35.530Z,99934.28
2022-08-17T02:54:41.144Z,99928.94
2022-08-17T02:56:54.470Z,99930.41
2022-08-17T02:59:24.399Z,99937.06
2022-08-17T03:01:53.851Z,99924.91
2022-08-17T03:04:23.064Z,99933.75
2022-08-17T03:06:51.674Z,99928.06
2022-08-17T03:09:21.601Z,99919.41
2022-08-17T03:11:51.923Z,99924.56
2022-08-17T03:14:26.246Z,99922.34
2022-08-17T03:16:55.352Z,99925.34
2022-08-17T03:19:23.938Z,99931.88
2022-08-17T03:21:54.953Z,99936.06
2022-08-17T03:24:28.787Z,99934.75
2022-08-17T03:26:57.729Z,99941.59
2022-08-17T03:29:26.541Z,99941.03
2022-08-17T03:31:55.179Z,99938.22
2022-08-17T03:34:23.760Z,99936.72
2022-08-17T03:36:52.492Z,99940.88
2022-08-17T03:39:21.024Z,99949.69
2022-08-17T03:41:50.891Z,99957.03
2022-08-17T03:44:19.607Z,99955.00
2022-08-17T03:47:10.897Z,99958.31
2022-08-17T03:49:57.126Z,99960.19
2022-08-17T03:52:43.204Z,99963.66
2022-08-17T03:55:35.860Z,99954.03
2022-08-17T03:58:06.422Z,99965.00
2022-08-17T04:00:39.709Z,99964.50
2022-08-17T04:03:09.073Z,99964.13
2022-08-17T04:05:38.298Z,99972.25
2022-08-17T04:08:08.668Z,99965.22
2022-08-17T04:10:41.932Z,99968.69
2022-08-17T04:13:15.687Z,99977.19
2022-08-17T04:15:52.991Z,99977.03
2022-08-17T04:18:21.838Z,99980.34
2022-08-17T04:20:50.427Z,99980.81
2022-08-17T04:23:20.343Z,99982.28
2022-08-17T04:25:51.751Z,99981.81
2022-08-17T04:28:21.941Z,99979.72
2022-08-17T04:30:50.970Z,99974.69
2022-08-17T04:33:24.078Z,99975.66
2022-08-17T04:35:55.991Z,99976.78
2022-08-17T04:38:28.094Z,99981.53
2022-08-17T04:41:15.914Z,99980.66
2022-08-17T04:43:48.074Z,99976.25
2022-08-17T04:46:20.053Z,99980.38
2022-08-17T04:48:52.336Z,99974.63
2022-08-17T04:51:24.748Z,99979.78
2022-08-17T04:53:56.874Z,99976.13
2022-08-17T04:56:28.104Z,99968.63
2022-08-17T04:59:02.575Z,99977.47
2022-08-17T05:01:35.241Z,99968.81
2022-08-17T05:04:33.188Z,99990.94
2022-08-17T05:06:57.966Z,99983.56
2022-08-17T05:09:26.572Z,99982.03
2022-08-17T05:11:56.215Z,99973.47
2022-08-17T05:14:27.276Z,99987.78
2022-08-17T05:17:07.037Z,99978.22
2022-08-17T05:19:38.420Z,99979.13
2022-08-17T05:22:07.472Z,99983.66
2022-08-17T05:24:38.963Z,99984.22
2022-08-17T05:27:18.727Z,99988.38
2022-08-17T05:29:49.145Z,99987.19
2022-08-17T05:32:39.321Z,99998.44
2022-08-17T05:35:10.134Z,99994.66
2022-08-17T05:37:39.071Z,99998.69
2022-08-17T05:40:10.050Z,100004.44
2022-08-17T05:42:38.820Z,100002.50
2022-08-17T05:45:11.082Z,100001.03
2022-08-17T05:47:41.117Z,99998.63
2022-08-17T05:50:18.645Z,100008.28
2022-08-17T05:53:04.289Z,100001.84
2022-08-17T05:55:45.809Z,100003.44
2022-08-17T05:58:31.256Z,100008.81
2022-08-17T06:01:14.477Z,100005.19
2022-08-17T06:03:58.673Z,100007.78
2022-08-17T06:06:41.612Z,100007.25
2022-08-17T06:09:33.843Z,100009.03
2022-08-17T06:12:27.025Z,100014.34
2022-08-17T06:15:19.501Z,100019.44
2022-08-17T06:17:56.261Z,100024.31
2022-08-17T06:20:28.741Z,100028.91
2022-08-17T06:23:06.550Z,100026.31
2022-08-17T06:25:46.474Z,100026.63
2022-08-17T06:28:27.836Z,100023.00
2022-08-17T06:31:03.996Z,100034.28
2022-08-17T06:33:39.823Z,100029.50
2022-08-17T06:36:30.266Z,100025.16
2022-08-17T06:39:20.755Z,100033.63
2022-08-17T06:42:05.237Z,100024.81
2022-08-17T06:44:51.304Z,100022.63
2022-08-17T06:47:30.326Z,100030.38
2022-08-17T06:50:15.576Z,100024.28
2022-08-17T06:52:53.853Z,100017.19
2022-08-17T06:55:34.473Z,100025.13
2022-08-17T06:58:15.849Z,100018.06
2022-08-17T07:00:48.852Z,100020.63
2022-08-17T07:03:30.335Z,100026.84
2022-08-17T07:06:09.225Z,100027.97
2022-08-17T07:08:54.861Z,100034.41
2022-08-17T07:11:31.843Z,100037.09
2022-08-17T07:14:20.040Z,100034.09
2022-08-17T07:16:53.460Z,100039.75
2022-08-17T07:19:28.183Z,100044.88
2022-08-17T07:22:14.059Z,100038.28
2022-08-17T07:24:51.574Z,100036.47
2022-08-17T07:27:23.534Z,100046.88
2022-08-17T07:29:58.251Z,100038.09
2022-08-17T07:32:36.713Z,100043.25
2022-08-17T07:35:15.334Z,100045.03
2022-08-17T07:37:53.461Z,100042.66
2022-08-17T07:40:35.099Z,100046.63
2022-08-17T07:43:23.561Z,100041.94
2022-08-17T07:46:18.898Z,100047.47
2022-08-17T07:48:50.754Z,100043.47
2022-08-17T07:51:28.065Z,100040.75
2022-08-17T07:54:14.197Z,100049.38
2022-08-17T07:56:47.916Z,100041.09
2022-08-17T07:59:23.714Z,100043.59
2022-08-17T08:02:31.121Z,100041.59
2022-08-17T08:05:13.038Z,100035.53
2022-08-17T08:07:55.001Z,100039.13
2022-08-17T08:10:36.361Z,100038.59
2022-08-17T08:13:12.318Z,100036.03
2022-08-17T08:15:54.255Z,100038.75
2022-08-17T08:18:41.205Z,100031.53
2022-08-17T08:21:38.087Z,100035.53
2022-08-17T08:24:32.014Z,100045.66
2022-08-17T08:27:18.317Z,100040.31
2022-08-17T08:29:58.374Z,100041.72
2022-08-17T08:32:50.329Z,100039.44
2022-08-17T08:35:30.977Z,100041.09
2022-08-17T08:38:16.687Z,100038.06
2022-08-17T08:41:17.236Z,100037.28
2022-08-17T08:44:03.791Z,100045.19
2022-08-17T08:46:47.383Z,100046.78
2022-08-17T08:50:06.679Z,100050.09
2022-08-17T08:52:58.310Z,100043.00
2022-08-17T08:55:43.894Z,100037.81
2022-08-17T08:58:32.226Z,100046.28
2022-08-17T09:01:20.020Z,100041.81
2022-08-17T09:04:24.215Z,100045.59
2022-08-17T09:07:12.674Z,100047.38
2022-08-17T09:09:59.443Z,100042.81
2022-08-17T09:12:42.038Z,100038.97
2022-08-17T09:15:18.958Z,100042.72
2022-08-17T09:18:33.514Z,100047.28
2022-08-17T09:20:56.632Z,100044.63
2022-08-17T09:23:34.533Z,100048.63
2022-08-17T09:26:13.001Z,100051.41
2022-08-17T09:28:50.994Z,100047.88
2022-08-17T09:31:31.301Z,100050.66
2022-08-17T09:34:10.645Z,100045.81
2022-08-17T09:37:02.177Z,100054.94
2022-08-17T09:39:49.331Z,100052.03
2022-08-17T09:42:28.056Z,100055.72
2022-08-17T09:45:10.890Z,100050.06
2022-08-17T09:47:48.313Z,100056.38
2022-08-17T09:51:03.748Z,100046.25
2022-08-17T09:53:16.035Z,100051.19
2022-08-17T09:56:16.955Z,100047.44
2022-08-17T09:59:16.956Z,100046.84
2022-08-17T10:01:54.700Z,100052.06
2022-08-17T10:04:50.597Z,100047.03
2022-08-17T10:07:31.981Z,100050.34
2022-08-17T10:10:14.347Z,100050.22
2022-08-17T10:12:53.328Z,100051.09
2022-08-17T10:15:42.492Z,100046.06
2022-08-17T10:18:37.738Z,100048.94
2022-08-17T10:21:30.580Z,100043.53
2022-08-17T10:24:28.573Z,100050.31
2022-08-17T10:27:03.115Z,100043.84
2022-08-17T10:29:47.531Z,100052.88
2022-08-17T10:32:32.534Z,100046.81
2022-08-17T10:35:29.991Z,100047.38
2022-08-17T10:38:36.541Z,100038.13
2022-08-17T10:41:25.785Z,100049.38
2022-08-17T10:44:38.828Z,100050.66
2022-08-17T10:47:09.501Z,100047.88
2022-08-17T10:49:47.798Z,100056.13
2022-08-17T10:52:50.317Z,100047.81
2022-08-17T10:55:20.653Z,100045.50
2022-08-17T10:57:54.893Z,100050.38
2022-08-17T11:01:05.757Z,100048.72
2022-08-17T11:03:34.991Z,100049.72
2022-08-17T11:06:19.055Z,100052.97
2022-08-17T11:09:30.727Z,100040.97
2022-08-17T11:12:18.682Z,100033.94
2022-08-17T11:15:05.058Z,100035.03
2022-08-17T11:18:22.146Z,100041.69
2022-08-17T11:21:47.543Z,100048.94
2022-08-17T11:24:23.477Z,100044.25
2022-08-17T11:27:13.558Z,100036.59
2022-08-17T11:30:01.465Z,100043.00
2022-08-17T11:32:39.080Z,100041.72
2022-08-17T11:35:41.248Z,100042.03
2022-08-17T11:38:25.866Z,100034.94
2022-08-17T11:41:19.483Z,100033.81
2022-08-17T11:44:25.873Z,100036.97
2022-08-17T11:47:33.692Z,100041.28
2022-08-17T11:51:01.080Z,100035.88
2022-08-17T11:57:02.283Z,100042.81
2022-08-17T12:00:00.974Z,100030.66
2022-08-17T12:02:38.956Z,100023.09
2022-08-17T12:05:35.088Z,100027.31
2022-08-17T12:08:21.653Z,100030.22
2022-08-17T12:11:00.631Z,100030.88
2022-08-17T12:13:38.759Z,100027.88
2022-08-17T12:16:10.051Z,100026.69
2022-08-17T12:18:41.988Z,100028.81
2022-08-17T12:21:45.118Z,100030.22
2022-08-17T12:24:32.957Z,100029.31
2022-08-17T12:27:06.919Z,100028.06
2022-08-17T12:29:39.193Z,100040.09
2022-08-17T12:32:17.538Z,100034.06
2022-08-17T12:34:50.803Z,100032.59
2022-08-17T12:37:22.726Z,100035.88
2022-08-17T12:39:57.661Z,100033.13
2022-08-17T12:42:31.100Z,100036.19
2022-08-17T12:45:00.257Z,100034.88
2022-08-17T12:47:30.115Z,100031.03
2022-08-17T12:50:29.107Z,100038.38
2022-08-17T12:53:02.311Z,100037.63
2022-08-17T12:55:38.909Z,100036.03
2022-08-17T12:58:14.648Z,100033.00
2022-08-17T13:00:51.606Z,100045.31
2022-08-17T13:03:24.226Z,100034.81
2022-08-17T13:06:01.648Z,100030.19
2022-08-17T13:08:36.133Z,100025.50
2022-08-17T13:11:09.377Z,100022.28
2022-08-17T13:13:43.088Z,100022.53
2022-08-17T13:16:20.354Z,100017.16
2022-08-17T13:18:53.634Z,100012.03
2022-08-17T13:21:30.673Z,100017.63
2022-08-17T13:24:03.193Z,100007.91
2022-08-17T13:26:36.571Z,100005.34
2022-08-17T13:29:18.519Z,100000.69
2022-08-17T13:31:52.367Z,99998.16
2022-08-17T13:35:05.895Z,100010.44
2022-08-17T13:37:36.923Z,100018.84
2022-08-17T13:40:33.545Z,100015.06
2022-08-17T13:43:03.499Z,100021.63
2022-08-17T13:45:44.731Z,100025.06
2022-08-17T13:48:26.866Z,100025.16
2022-08-17T13:51:29.549Z,100026.44
2022-08-17T13:54:26.826Z,100030.34
2022-08-17T13:57:01.509Z,100029.50
2022-08-17T13:59:54.277Z,100028.38
2022-08-17T14:02:28.339Z,100032.53
2022-08-17T14:05:00.541Z,100023.72
2022-08-17T14:07:36.205Z,100025.16
2022-08-17T14:10:13.681Z,100019.00
2022-08-17T14:12:45.419Z,100015.56
2022-08-17T14:15:16.718Z,100012.66
2022-08-17T14:17:45.530Z,100019.38
2022-08-17T14:20:15.153Z,100025.91
2022-08-17T14:22:48.314Z,100023.97
2022-08-17T14:25:24.203Z,100023.38
2022-08-17T14:27:54.243Z,100018.47
2022-08-17T14:30:29.654Z,100019.16
2022-08-17T14:33:02.141Z,100018.91
2022-08-17T14:35:31.018Z,100018.94
2022-08-17T14:37:59.868Z,100014.94
2022-08-17T14:40:30.086Z,100020.25
2022-08-17T14:42:59.256Z,100021.63
2022-08-17T14:45:33.251Z,100021.53
2022-08-17T14:48:07.646Z,100025.34
2022-08-17T14:50:39.441Z,100021.91
2022-08-17T14:53:13.125Z,100011.75
2022-08-17T14:55:47.150Z,100015.75
2022-08-17T14:58:16.179Z,100007.50
2022-08-17T15:00:45.188Z,100010.91
2022-08-17T15:03:14.524Z,100014.72
2022-08-17T15:05:44.336Z,100017.28
2022-08-17T15:08:13.554Z,100012.91
2022-08-17T15:10:44.838Z,100005.25
2022-08-17T15:13:21.426Z,100009.00
2022-08-17T15:15:51.298Z,100011.91
2022-08-17T15:18:20.199Z,100015.75
2022-08-17T15:20:50.240Z,100009.91
2022-08-17T15:23:23.497Z,100011.28
2022-08-17T15:25:55.598Z,100008.84
2022-08-17T15:28:24.486Z,100012.69
2022-08-17T15:30:54.541Z,100013.69
2022-08-17T15:33:29.472Z,100010.53
2022-08-17T15:36:02.353Z,100014.53
2022-08-17T15:38:35.314Z,100013.78
2022-08-17T15:41:06.413Z,100012.63
2022-08-17T15:43:36.421Z,100015.22
2022-08-17T15:46:10.516Z,100008.72
2022-08-17T15:48:42.537Z,100016.28
2022-08-17T15:51:15.268Z,100020.06
2022-08-17T15:53:47.129Z,100024.16
2022-08-17T15:56:18.311Z,100016.28
2022-08-17T15:58:49.416Z,100010.72
2022-08-17T16:01:41.869Z,100008.09
2022-08-17T16:04:21.274Z,100017.13
2022-08-17T16:06:58.774Z,100019.88
2022-08-17T16:09:27.527Z,100019.53
2022-08-17T16:11:57.544Z,100016.69
2022-08-17T16:14:32.423Z,100018.38
2022-08-17T16:17:04.475Z,100019.03
2022-08-17T16:19:34.415Z,100024.25
2022-08-17T16:22:03.901Z,100024.69
2022-08-17T16:24:34.105Z,100025.59
2022-08-17T16:27:11.719Z,100020.81
2022-08-17T16:29:42.421Z,100020.22
2022-08-17T16:32:15.063Z,100020.44
2022-08-17T16:34:44.643Z,100026.84
2022-08-17T16:37:13.639Z,100017.34
2022-08-17T16:39:42.342Z,100022.53
2022-08-17T16:42:26.978Z,100021.84
2022-08-17T16:44:58.084Z,100008.38
2022-08-17T16:47:27.152Z,100023.34
2022-08-17T16:49:55.828Z,100025.44
2022-08-17T16:52:32.501Z,100027.09
2022-08-17T16:55:04.882Z,100034.75
2022-08-17T16:57:37.423Z,100034.72
2022-08-17T17:00:20.949Z,100045.50
2022-08-17T17:02:50.879Z,100043.19
2022-08-17T17:05:41.503Z,100050.56
2022-08-17T17:08:14.822Z,100048.19
2022-08-17T17:10:49.230Z,100048.41
2022-08-17T17:13:27.546Z,100050.91
2022-08-17T17:16:06.928Z,100053.59
2022-08-17T17:18:43.507Z,100050.28
2022-08-17T17:21:19.182Z,100055.50
2022-08-17T17:23:57.159Z,100042.88
2022-08-17T17:27:07.296Z,100055.09
2022-08-17T17:29:58.219Z,100057.03
2022-08-17T17:32:38.510Z,100064.50
2022-08-17T17:35:16.436Z,100070.50
2022-08-17T17:37:47.638Z,100084.78
2022-08-17T17:40:23.627Z,100081.28
2022-08-17T17:43:14.233Z,100078.19
2022-08-17T17:45:58.661Z,100089.34
2022-08-17T17:48:48.013Z,100089.34
2022-08-17T17:52:06.240Z,100096.59
2022-08-17T17:54:38.346Z,100096.59
2022-08-17T17:57:24.717Z,100102.84
2022-08-17T18:00:08.177Z,100099.50
2022-08-17T18:03:05.793Z,100089.38
2022-08-17T18:05:52.833Z,100098.03
2022-08-17T18:08:49.037Z,100099.91
2022-08-17T18:11:51.562Z,100117.25
2022-08-17T18:14:38.624Z,100106.25
2022-08-17T18:17:07.874Z,100113.44
2022-08-17T18:19:41.523Z,100119.44
2022-08-17T18:22:14.926Z,100115.28
2022-08-17T18:24:48.240Z,100119.81
2022-08-17T18:27:25.375Z,100121.00
2022-08-17T18:29:56.902Z,100113.53
2022-08-17T18:32:37.689Z,100110.63
2022-08-17T18:35:35.090Z,100108.53
2022-08-17T18:38:23.272Z,100116.75
2022-08-17T18:41:19.286Z,100115.13
2022-08-17T18:44:02.619Z,100123.38
2022-08-17T18:46:37.782Z,100129.69
2022-08-17T18:49:25.417Z,100123.88
2022-08-17T18:52:15.393Z,100123.50
2022-08-17T18:55:08.751Z,100133.31
2022-08-17T18:57:42.622Z,100137.41
2022-08-17T19:00:19.211Z,100135.69
2022-08-17T19:02:55.361Z,100144.97
2022-08-17T19:05:35.963Z,100143.69
2022-08-17T19:08:25.769Z,100144.25
2022-08-17T19:10:59.486Z,100133.88
2022-08-17T19:13:35.612Z,100140.81
2022-08-17T19:16:15.424Z,100140.00
2022-08-17T19:18:53.112Z,100146.16
2022-08-17T19:21:28.061Z,100147.53
2022-08-17T19:24:08.564Z,100150.22
2022-08-17T19:26:53.267Z,100147.22
2022-08-17T19:29:34.218Z,100147.06
2022-08-17T19:32:04.249Z,100147.00
2022-08-17T19:34:36.326Z,100151.53
2022-08-17T19:37:16.271Z,100149.25
2022-08-17T19:40:02.531Z,100144.03
2022-08-17T19:42:47.528Z,100147.63
2022-08-17T19:45:48.219Z,100154.41
2022-08-17T19:48:42.733Z,100157.72
2022-08-17T19:51:18.823Z,100163.53
2022-08-17T19:54:07.727Z,100162.91
2022-08-17T19:56:51.685Z,100162.00
2022-08-17T19:59:36.058Z,100163.38
2022-08-17T20:02:21.637Z,100160.44
2022-08-17T20:04:55.084Z,100164.78
2022-08-17T20:07:38.348Z,100169.97
2022-08-17T20:10:12.264Z,100176.88
2022-08-17T20:12:54.596Z,100166.16
2022-08-17T20:15:30.584Z,100167.34
2022-08-17T20:18:06.623Z,100162.19
2022-08-17T20:20:48.053Z,100171.22
2022-08-17T20:23:37.287Z,100173.25
2022-08-17T20:26:19.688Z,100176.94
2022-08-17T20:29:37.728Z,100176.69
2022-08-17T20:32:25.581Z,100176.22
2022-08-17T20:35:25.575Z,100178.91
2022-08-17T20:38:02.111Z,100176.91
2022-08-17T20:40:39.386Z,100178.34
2022-08-17T20:43:51.501Z,100172.25
2022-08-17T20:46:52.160Z,100174.66
2022-08-17T20:49:31.866Z,100172.34
2022-08-17T20:52:07.724Z,100183.53
2022-08-17T20:54:51.196Z,100194.88
2022-08-17T20:57:47.897Z,100206.16
2022-08-17T21:00:44.712Z,100202.28
2022-08-17T21:03:53.208Z,100197.13
2022-08-17T21:06:26.044Z,100206.53
2022-08-17T21:09:00.214Z,100205.25
2022-08-17T21:12:04.101Z,100205.25
2022-08-17T21:15:00.879Z,100210.41
2022-08-17T21:17:49.973Z,100211.16
2022-08-17T21:20:37.313Z,100219.00
2022-08-17T21:23:34.091Z,100218.66
2022-08-17T21:26:20.648Z,100230.44
2022-08-17T21:29:29.670Z,100233.03
2022-08-17T21:32:24.626Z,100232.22
2022-08-17T21:35:28.673Z,100231.28
2022-08-17T21:38:05.110Z,100225.63
2022-08-17T21:40:35.472Z,100221.50
2022-08-17T21:43:23.833Z,100206.59
2022-08-17T21:46:03.958Z,100208.81
2022-08-17T21:48:42.824Z,100206.25
2022-08-17T21:51:19.224Z,100212.81
2022-08-17T21:53:52.290Z,100215.47
2022-08-17T21:56:30.503Z,100199.66
2022-08-17T21:59:03.557Z,100206.88
2022-08-17T22:01:35.628Z,100206.41
2022-08-17T22:04:18.948Z,100198.28
2022-08-17T22:06:52.492Z,100192.34
2022-08-17T22:09:31.455Z,100191.53
2022-08-17T22:12:08.954Z,100197.88
2022-08-17T22:14:52.198Z,100192.06
2022-08-17T22:17:27.203Z,100193.25
2022-08-17T22:20:00.861Z,100188.44
2022-08-17T22:22:56.550Z,100197.84
2022-08-17T22:25:27.859Z,100198.91
2022-08-17T22:28:00.162Z,100192.53
2022-08-17T22:30:37.566Z,100188.19
2022-08-17T22:33:38.142Z,100185.88
2022-08-17T22:36:22.727Z,100183.75
2022-08-17T22:38:55.950Z,100185.09
2022-08-17T22:41:41.860Z,100177.91
2022-08-17T22:44:29.663Z,100180.09
2022-08-17T22:47:11.387Z,100179.94
2022-08-17T22:49:53.931Z,100174.28
2022-08-17T22:52:33.075Z,100177.59
2022-08-17T22:55:35.308Z,100168.47
2022-08-17T22:58:29.989Z,100168.63
2022-08-17T23:01:26.423Z,100169.66
2022-08-17T23:03:58.223Z,100161.94
2022-08-17T23:06:27.144Z,100159.63
2022-08-17T23:08:56.607Z,100153.81
2022-08-17T23:11:43.021Z,100159.97
2022-08-17T23:14:22.543Z,100157.66
2022-08-17T23:16:51.421Z,100156.19
2022-08-17T23:19:22.856Z,100151.00
2022-08-17T23:21:55.449Z,100156.88
2022-08-17T23:24:27.839Z,100158.06
2022-08-17T23:26:59.279Z,100153.06
2022-08-17T23:29:29.632Z,100152.75
2022-08-17T23:32:01.425Z,100147.13
2022-08-17T23:34:30.371Z,100150.13
2022-08-17T23:37:02.263Z,100159.16
2022-08-17T23:39:31.668Z,100151.16
2022-08-17T23:42:07.947Z,100145.63
2022-08-17T23:44:39.115Z,100139.13
2022-08-17T23:47:08.992Z,100152.50
2022-08-17T23:49:39.235Z,100148.16
2022-08-17T23:52:15.172Z,100143.00
2022-08-17T23:54:48.460Z,100131.63
2022-08-17T23:57:33.152Z,100139.47
